Capitol Logistics 7437

Operating for MZN



KBDL
Bradley International Airport
Windsor Locks, Connecticut
KONT
Ontario International Airport
Ontario, California

Activity Log

Date Flight Route Aircraft Duration
No Flights Yet

Route Details

Aircraft Information
Primary: Boeing 767-300BDSF
Backup: Airbus A300-600F
Route Data
Distance: 2479nm
Duration: 5h 49m
Recm'd Route: CTR HNK J49 PSB AIR J110 TILMN J110 STL J110 SCAWT J110 KIRKE J110 RSK J110 LRAIN TOADD Q78 MARUE JCKIE2
Origin Wx: KBDL 020551Z 00000KT 10SM SCT023 SCT050 BKN150 18/17 A2984 RMK AO2 SLP102 60007 T01830167 10206 20178 56009
Dest. Wx: KONT 020553Z 23003KT 10SM CLR 25/08 A3004 RMK AO2 SLP153 T02500078 10356 20250 51012
Notes: